• Join FlightAware (Why Join?)
  • Login
  • US Flag 
08:16PM EDT


 

Airport Tracker/Info


-or-


 

Live Flight TrackerFlight Track Log ✈ SWA1802 ✈ 27-Apr-2013 ✈ KALB - KMCO

Flight Track Log - Related Links

Times and Time Zones

All times are in EDT time to prevent confusion due to time zone crossing. See the SWA1802 flight status page for this flight to view local times or setup timezone preferences in your user account.

Time Position Orientation Groundspeed Altitude Reporting Facility
EDT Latitude Longitude Course Direction KTS MPH feet Rate Location/Type
06:50AM 42.7653 -73.8061 342° North 153 176 1,600  Level Boston Center
06:50AM 42.7983 -73.8208 342° North 194 223 2,900 2,520 Climbing Boston Center
06:52AM 42.8642 -73.9075 316° Northwest 243 280 6,900 3,120 Climbing Boston Center
06:53AM 42.9131 -73.9739 315° West 242 278 10,400 2,820 Climbing Boston Center
06:55AM 42.9811 -74.1769 295° West 318 366 15,400 2,520 Climbing Boston Center
06:56AM 42.8928 -74.2339 205° Southwest 301 346 18,100 2,460 Climbing Boston Center
06:57AM 42.7956 -74.1775 157° South 272 313 20,400 2,100 Climbing Boston Center
06:58AM 42.6925 -74.1067 153° Southeast 335 386 22,400 1,920 Climbing Boston Center
06:59AM 42.5872 -74.0419 156° South 377 434 24,300 1,980 Climbing Boston Center
07:00AM 42.4778 -73.9686 154° Southeast 417 480 26,400 1,800 Climbing Boston Center
07:01AM 42.3661 -73.8928 153° Southeast 432 497 27,900 1,380 Climbing Boston Center
07:02AM 42.2503 -73.8228 156° South 448 516 29,200 1,200 Climbing Boston Center
07:03AM 42.1336 -73.8203 179° South 451 519 30,400 900 Climbing Boston Center
07:04AM 42.0064 -73.8203 180° South 461 531 31,000 1,080 Climbing Boston Center
07:05AM 41.8831 -73.8622 194° South 456 525 32,600 1,500 Climbing Boston Center
07:06AM 41.7614 -73.9206 200° South 449 517 34,100 960 Climbing Boston Center
07:08AM 41.4825 -74.0581 200° South 439 505 36,000 540 Climbing New York Center
07:09AM 41.3706 -74.1133 200° South 439 505 36,000  Level New York Center
07:10AM 41.2542 -74.1739 201° Southwest 444 511 36,000  Level New York Center
07:11AM 41.1339 -74.2283 199° South 451 519 36,000  Level New York Center
07:12AM 41.0175 -74.2883 201° Southwest 451 519 36,000  Level New York Center
07:13AM 40.9014 -74.3456 200° South 456 525 36,000  Level New York Center
07:14AM 40.7828 -74.4022 200° South 456 525 36,000  Level New York Center
07:15AM 40.6644 -74.4589 200° South 456 525 36,000  Level New York Center
07:17AM 40.3781 -74.6003 201° Southwest 471 542 36,000  Level Washington Center
07:18AM 40.2578 -74.6564 200° South 466 536 36,000 -60 Level Washington Center
07:19AM 40.1394 -74.7150 201° Southwest 466 536 35,900  Descending Washington Center
07:20AM 40.0211 -74.7706 200° South 466 536 36,000  Climbing Washington Center
07:21AM 39.9131 -74.8261 202° Southwest 466 536 36,000  Level Washington Center
07:22AM 39.7844 -74.8867 200° South 466 536 36,000  Level Washington Center
07:23AM 39.6783 -74.9364 200° South 466 536 36,000  Level Washington Center
07:24AM 39.5558 -74.9939 200° South 466 536 36,000  Level Washington Center
07:25AM 39.4394 -75.0489 200° South 466 536 36,000  Level Washington Center
07:26AM 39.3208 -75.1033 200° South 461 531 36,000  Level Washington Center
07:27AM 39.2000 -75.1578 199° South 461 531 36,000  Level Washington Center
07:28AM 39.0836 -75.2067 198° South 461 531 36,000  Level Washington Center
07:29AM 38.9650 -75.2553 198° South 456 525 36,000  Level Washington Center
07:30AM 38.8461 -75.3039 198° South 456 525 36,000  Level Washington Center
07:31AM 38.7294 -75.3522 198° South 456 525 36,000  Level Washington Center
07:32AM 38.6131 -75.4056 200° South 451 519 36,000  Level Washington Center
07:33AM 38.4942 -75.4458 195° South 445 512 36,000  Level Washington Center
07:34AM 38.3775 -75.4989 200° South 445 512 36,000  Level Washington Center
07:35AM 38.2608 -75.5467 198° South 445 512 36,000  Level Washington Center
07:36AM 38.1461 -75.5944 198° South 445 512 36,000  Level Washington Center
07:37AM 38.0333 -75.6525 202° Southwest 440 506 36,000  Level Washington Center
07:38AM 37.9144 -75.6997 197° South 446 513 36,000  Level Washington Center
07:39AM 37.7997 -75.7494 199° South 446 513 36,000  Level Washington Center
07:40AM 37.6828 -75.7992 199° South 446 513 36,000  Level Washington Center
07:41AM 37.5703 -75.8461 198° South 446 513 36,000  Level Washington Center
07:42AM 37.4553 -75.9031 201° Southwest 446 513 36,000  Level Washington Center
07:43AM 37.3467 -75.9628 204° Southwest 446 513 36,000  Level Washington Center
07:44AM 37.2358 -76.0222 203° Southwest 436 502 36,000  Level Washington Center
07:45AM 37.1231 -76.0817 203° Southwest 436 502 36,000  Level Washington Center
07:46AM 37.0103 -76.1381 202° Southwest 441 507 36,000  Level Washington Center
07:47AM 36.8911 -76.1867 198° South 446 513 36,000  Level Washington Center
07:48AM 36.7739 -76.2428 201° Southwest 452 520 36,000  Level Washington Center
07:49AM 36.6506 -76.3039 202° Southwest 446 513 36,000  Level Washington Center
07:50AM 36.5353 -76.3544 199° South 441 507 36,000  Level Washington Center
07:51AM 36.4203 -76.4103 201° Southwest 446 513 36,000  Level Washington Center
07:52AM 36.3031 -76.4606 199° South 451 519 36,000  Level Washington Center
07:53AM 36.1900 -76.5158 202° Southwest 451 519 36,000  Level Washington Center
07:54AM 36.0750 -76.5661 199° South 451 519 36,000  Level Washington Center
07:55AM 35.9597 -76.6183 200° South 451 519 36,000  Level Washington Center
07:56AM 35.8425 -76.6733 201° Southwest 451 519 36,000  Level Washington Center
07:57AM 35.7272 -76.7256 200° South 451 519 36,000  Level Washington Center
07:58AM 35.6139 -76.7800 201° Southwest 451 519 36,000  Level Washington Center
07:59AM 35.5133 -76.8219 199° South 441 507 36,000  Level Washington Center
08:00AM 35.3981 -76.8764 201° Southwest 441 507 36,000  Level Washington Center
08:01AM 35.2806 -76.9278 200° South 441 507 36,000  Level Washington Center
08:02AM 35.1653 -76.9819 201° Southwest 447 514 36,000  Level Washington Center
08:03AM 35.0436 -77.0406 202° Southwest 442 509 36,000  Level Washington Center
08:04AM 34.9261 -77.0917 200° South 442 509 36,000  Level Washington Center
08:05AM 34.8106 -77.1428 200° South 447 514 36,000  Level Washington Center
08:06AM 34.6953 -77.1961 201° Southwest 447 514 36,000  Level Washington Center
08:07AM 34.5797 -77.2469 200° South 447 514 36,000  Level Washington Center
08:08AM 34.4644 -77.2950 199° South 447 514 36,000  Level Washington Center
08:09AM 34.3467 -77.3478 200° South 447 514 36,000  Level Washington Center
08:11AM 34.1092 -77.4503 200° South 447 514 36,000  Level Jacksonville Center
08:12AM 33.9903 -77.5003 199° South 447 514 36,000  Level Jacksonville Center
08:13AM 33.8836 -77.5419 198° South 459 528 36,000  Level Jacksonville Center
08:14AM 33.7650 -77.5967 201° Southwest 459 528 36,000  Level Jacksonville Center
08:15AM 33.6461 -77.6486 200° South 459 528 36,000  Level Jacksonville Center
08:16AM 33.5314 -77.7003 201° Southwest 459 528 36,000  Level Jacksonville Center
08:17AM 33.4125 -77.7519 200° South 459 528 36,000  Level Jacksonville Center
08:18AM 33.2914 -77.8014 199° South 459 528 36,000  Level Jacksonville Center
08:19AM 33.1764 -77.8500 199° South 459 528 36,000  Level Jacksonville Center
08:20AM 33.0575 -77.9014 200° South 459 528 36,000  Level Jacksonville Center
08:21AM 32.9406 -77.9522 200° South 459 528 36,000  Level Jacksonville Center
08:22AM 32.8214 -78.0008 199° South 459 528 36,000  Level Jacksonville Center
08:23AM 32.7022 -78.0517 200° South 459 528 36,000  Level Jacksonville Center
08:24AM 32.5811 -78.1025 199° South 459 528 36,000  Level Jacksonville Center
08:25AM 32.4639 -78.1506 199° South 459 528 36,000  Level Jacksonville Center
08:26AM 32.3425 -78.1989 199° South 459 528 36,000  Level Jacksonville Center
08:27AM 32.2133 -78.2619 202° Southwest 469 540 36,000  Level Jacksonville Center
08:28AM 32.0919 -78.3122 199° South 463 533 36,000  Level Jacksonville Center
08:29AM 31.9750 -78.3619 200° South 463 533 36,000  Level Jacksonville Center
08:30AM 31.8578 -78.4142 201° Southwest 458 527 36,000  Level Jacksonville Center
08:31AM 31.7425 -78.4614 199° South 446 513 36,000  Level Jacksonville Center
08:32AM 31.6253 -78.5133 201° Southwest 452 520 36,000  Level Jacksonville Center
08:33AM 31.5100 -78.5600 199° South 455 524 36,000  Level Jacksonville Center
08:34AM 31.3928 -78.6094 200° South 451 519 36,000  Level Jacksonville Center
08:35AM 31.2736 -78.6633 201° Southwest 449 517 36,000  Level Jacksonville Center
08:36AM 31.1706 -78.7094 201° Southwest 441 507 36,000  Level Jacksonville Center
08:37AM 31.0553 -78.7556 199° South 446 513 36,000  Level Jacksonville Center
08:38AM 30.9378 -78.8044 200° South 446 513 36,000  Level Jacksonville Center
08:39AM 30.8203 -78.8531 200° South 446 513 36,000  Level Jacksonville Center
08:40AM 30.7050 -78.9039 201° Southwest 446 513 36,000  Level Jacksonville Center
08:41AM 30.5856 -78.9547 200° South 451 519 36,000  Level Jacksonville Center
08:43AM 30.4456 -79.0111 199° South 448 516 36,000  Level Miami Center
08:44AM 30.3281 -79.0617 200° South 453 521 36,000  Level Miami Center
08:45AM 30.2064 -79.1119 200° South 453 521 36,000  Level Miami Center
08:46AM 30.0886 -79.1597 199° South 453 521 36,000  Level Miami Center
08:47AM 29.9628 -79.2217 203° Southwest 446 513 36,000  Level Miami Center
08:48AM 29.8472 -79.2717 201° Southwest 451 519 36,000  Level Miami Center
08:49AM 29.7297 -79.3169 199° South 451 519 36,000  Level Miami Center
08:50AM 29.6119 -79.3644 199° South 451 519 36,000 -780 Level Miami Center
08:51AM 29.4964 -79.4142 201° Southwest 451 519 34,500 -1,740 Descending Miami Center
08:52AM 29.3808 -79.4567 198° South 446 513 32,600 -1,980 Descending Miami Center
08:53AM 29.2653 -79.5017 199° South 446 513 30,600 -2,040 Descending Miami Center
08:54AM 29.1539 -79.5489 200° South 446 513 28,600 -1,920 Descending Miami Center
08:55AM 29.0753 -79.6275 221° Southwest 403 464 26,800 -1,800 Descending Miami Center
08:56AM 29.0436 -79.7456 253° West 378 435 25,000 -1,800 Descending Miami Center
08:57AM 29.0061 -79.8464 247° West 367 422 23,300 -1,680 Descending Miami Center
08:59AM 28.9472 -80.0583 252° West 354 407 20,100 -1,680 Descending Miami Center
09:00AM 28.9136 -80.1617 250° West 349 402 18,400 -1,740 Descending Miami Center
09:01AM 28.8797 -80.2744 251° West 355 409 16,700 -1,440 Descending Miami Center
09:03AM 28.8167 -80.5000 252° West 342 394 14,000 -1,200 Descending Orlando TRACON
09:04AM 28.8000 -80.6000 259° West 336 387 13,200 -1,440 Descending Orlando TRACON
09:04AM 28.8000 -80.7000 270° West 338 389 11,500 -1,620 Descending Orlando TRACON
09:06AM 28.7833 -80.8000 259° West 326 375 10,000 -720 Descending Orlando TRACON
09:07AM 28.7333 -80.8833 236° Southwest 296 341 10,000  Level Orlando TRACON
09:08AM 28.6833 -80.9667 236° Southwest 302 348 10,000 -540 Level Orlando TRACON
09:08AM 28.6333 -81.0333 229° Southwest 304 350 9,000 -540 Descending Orlando TRACON
09:09AM 28.5833 -81.1167 236° Southwest 301 346 9,000 -360 Level Orlando TRACON
09:10AM 28.5333 -81.1833 230° Southwest 306 352 8,300 -1,140 Descending Orlando TRACON
09:12AM 28.4333 -81.1833 180° South 294 338 6,700 -1,260 Descending Orlando TRACON
09:12AM 28.3667 -81.1833 180° South 278 320 5,800 -1,020 Descending Orlando TRACON
09:14AM 28.2833 -81.1833 180° South 248 285 4,700 -1,020 Descending Orlando TRACON
09:15AM 28.2833 -81.2500 270° West 228 262 3,700 -960 Descending Orlando TRACON
09:16AM 28.3167 -81.2833 319° Northwest 155 178 2,800 -1,200 Descending Orlando TRACON
09:17AM 28.3667 -81.2833 360° North 170 196 1,400 -1,200 Descending Orlando TRACON
09:18AM 28.4000 -81.2833 360° North 143 165 400 -1,020 Descending Orlando TRACON